Time;durP1;ratioP1;P1;durP2;ratioP2;P2;SDS_P1;SDS_P2;PMS_P1;PMS_P2;Temp;Humidity;BMP_temperature;BMP_pressure;BME280_temperature;BME280_humidity;BME280_pressure;Samples;Min_cycle;Max_cycle;Signal;HPM_P1;HPM_P2
2023/06/22 00:02:10;279786.00;0.93;483.17;60566.00;0.20;105.46;;;;;24.80;1.00;;;;;;2280382;61;1597;-88
2023/06/22 00:04:37;31421.00;0.10;55.04;0.00;0.00;0.62;;;;;24.90;1.00;;;;;;2300487;39;3636;-88
2023/06/22 00:07:05;814732.00;2.72;1406.83;6058.00;0.02;11.12;;;;;25.00;1.00;;;;;;2289173;60;1659;-87
2023/06/22 00:09:37;74200.00;0.25;129.02;0.00;0.00;0.62;;;;;25.00;1.00;;;;;;2288456;60;1456;-89
2023/06/22 00:12:07;169571.00;0.57;293.53;0.00;0.00;0.62;;;;;25.00;1.00;;;;;;2288382;60;1642;-87
2023/06/22 00:14:34;307676.00;1.03;531.11;33160.00;0.11;58.05;;;;;25.10;1.00;;;;;;2288423;60;1590;-89
2023/06/22 00:17:02;52274.00;0.17;91.12;0.00;0.00;0.62;;;;;25.20;1.00;;;;;;2290747;39;3666;-89
2023/06/22 00:19:29;282208.00;0.94;487.33;64883.00;0.22;112.92;;;;;25.20;1.00;;;;;;2284389;60;1764;-87
2023/06/22 00:22:00;118663024.00;395.54;67684200.00;68093.00;0.23;118.46;;;;;25.20;1.00;;;;;;2284433;60;1567;-87
2023/06/22 00:24:27;774535.00;2.58;1336.75;71514.00;0.24;124.38;;;;;25.30;1.00;;;;;;2284414;60;1984;-87
2023/06/22 00:26:54;1307349.00;4.36;2285.56;99839.00;0.33;173.29;;;;;25.30;1.00;;;;;;2284456;60;1380;-88
2023/06/22 00:29:22;1177866.00;3.93;2050.25;142283.00;0.47;246.51;;;;;25.10;1.00;;;;;;2284334;60;1082;-88
2023/06/22 00:31:49;1110633.00;3.70;1929.45;151116.00;0.50;261.73;;;;;24.90;1.00;;;;;;2284348;60;1594;-88
2023/06/22 00:34:16;1128796.00;3.76;1962.00;127552.00;0.43;221.11;;;;;25.00;1.00;;;;;;2284300;60;1492;-87
2023/06/22 00:36:43;468129.00;1.56;806.97;98757.00;0.33;171.43;;;;;25.00;1.00;;;;;;2284397;60;1443;-87
2023/06/22 00:39:10;377084.00;1.26;650.41;90775.00;0.30;157.65;;;;;25.10;1.00;;;;;;2284261;60;1598;-87
2023/06/22 00:41:37;339146.00;1.13;585.21;88437.00;0.29;153.61;;;;;24.90;1.00;;;;;;2284340;60;2307;-88
2023/06/22 00:44:04;425848.00;1.42;734.25;153662.00;0.51;266.12;;;;;24.90;1.00;;;;;;2284408;60;1115;-87
2023/06/22 00:46:33;213284.00;0.71;368.79;65762.00;0.22;114.44;;;;;25.00;1.00;;;;;;2284258;60;2022;-87
2023/06/22 00:49:01;468716.00;1.56;807.98;98202.00;0.33;170.47;;;;;25.10;1.00;;;;;;2284378;60;1503;-87
2023/06/22 00:51:28;33094.00;0.11;57.94;0.00;0.00;0.62;;;;;24.90;1.00;;;;;;2284261;60;1009;-88
2023/06/22 00:53:56;409090.00;1.36;705.43;115392.00;0.38;200.13;;;;;24.70;1.00;;;;;;2284313;60;1010;-87
2023/06/22 00:56:25;0.00;0.00;0.62;0.00;0.00;0.62;;;;;24.60;1.40;;;;;;2284154;60;2287;-86
2023/06/22 00:58:53;165336.00;0.55;286.23;0.00;0.00;0.62;;;;;24.70;1.00;;;;;;2284182;60;1609;-86
2023/06/22 01:01:23;345800.00;1.15;596.64;23468.00;0.08;41.28;;;;;24.90;1.00;;;;;;2284128;60;1498;-87
2023/06/22 01:03:52;84531.00;0.28;146.86;0.00;0.00;0.62;;;;;25.00;1.00;;;;;;2284323;60;1152;-87
2023/06/22 01:06:27;239313.00;0.80;413.57;32073.00;0.11;56.17;;;;;24.90;1.00;;;;;;2284192;60;2012;-87
2023/06/22 01:09:05;73669.00;0.25;128.10;0.00;0.00;0.62;;;;;24.70;1.00;;;;;;2284319;60;1146;-86
2023/06/22 01:11:38;117654.00;0.39;204.04;0.00;0.00;0.62;;;;;24.70;1.00;;;;;;2284372;60;1442;-87
2023/06/22 01:14:12;280016.00;0.93;483.56;25674.00;0.09;45.09;;;;;24.40;1.50;;;;;;2284264;60;1579;-87
2023/06/22 01:16:44;122718.00;0.41;212.77;0.00;0.00;0.62;;;;;24.20;2.50;;;;;;2284206;60;1361;-86
2023/06/22 01:19:29;209565.00;0.70;362.39;0.00;0.00;0.62;;;;;24.10;3.00;;;;;;2284232;60;956;-87
2023/06/22 01:21:59;99144.00;0.33;172.09;0.00;0.00;0.62;;;;;24.20;2.40;;;;;;2284227;60;1615;-87
2023/06/22 01:24:35;37679.00;0.13;65.87;0.00;0.00;0.62;;;;;24.50;1.90;;;;;;2284130;60;1943;-86
2023/06/22 01:27:14;219747.00;0.73;379.91;0.00;0.00;0.62;;;;;24.40;1.80;;;;;;2284187;60;1390;-88
2023/06/22 01:29:45;109396.00;0.36;189.79;0.00;0.00;0.62;;;;;24.20;2.60;;;;;;2284253;60;983;-86
2023/06/22 01:32:14;213559.00;0.71;369.26;0.00;0.00;0.62;;;;;24.30;2.20;;;;;;2284204;60;1127;-87
2023/06/22 01:34:43;801801.00;2.67;1384.26;105243.00;0.35;182.62;;;;;24.40;2.20;;;;;;2284159;60;1047;-86
2023/06/22 01:37:11;561736.00;1.87;968.19;43410.00;0.14;75.79;;;;;24.40;1.50;;;;;;2284185;60;1630;-87
2023/06/22 01:39:38;1124477.00;3.75;1954.25;106621.00;0.36;185.00;;;;;24.40;1.60;;;;;;2284216;60;1564;-88
2023/06/22 01:42:07;1227034.00;4.09;2139.17;151659.00;0.51;262.67;;;;;24.60;1.60;;;;;;2284116;60;954;-87
2023/06/22 01:44:36;991292.00;3.30;1717.06;104249.00;0.35;180.91;;;;;24.40;1.80;;;;;;2284052;60;2004;-87
2023/06/22 01:47:05;1222301.00;4.07;2130.59;187468.00;0.62;324.35;;;;;24.30;1.80;;;;;;2283948;60;1610;-85
2023/06/22 01:49:32;1681315.00;5.60;2989.18;288327.00;0.96;497.85;;;;;24.40;1.70;;;;;;2284104;60;1768;-86
2023/06/22 01:51:59;835379.00;2.78;1442.90;144228.00;0.48;249.86;;;;;24.40;2.40;;;;;;2284088;60;1772;-87
2023/06/22 01:54:26;847098.00;2.82;1463.39;168466.00;0.56;291.62;;;;;24.30;2.30;;;;;;2284104;60;1481;-86
2023/06/22 01:56:54;948414.00;3.16;1641.31;117195.00;0.39;203.24;;;;;24.20;2.70;;;;;;2284137;60;1360;-87
2023/06/22 01:59:29;916658.00;3.06;1585.40;132142.00;0.44;229.02;;;;;24.20;3.20;;;;;;2284116;60;1515;-86
2023/06/22 02:02:07;910760.00;3.04;1575.03;96376.00;0.32;167.32;;;;;24.20;3.20;;;;;;2284105;60;1412;-86
2023/06/22 02:04:42;958073.00;3.19;1658.35;103307.00;0.34;179.28;;;;;24.10;3.50;;;;;;2284158;60;1157;-86
2023/06/22 02:07:15;1138887.00;3.80;1980.11;122930.00;0.41;213.14;;;;;24.00;3.30;;;;;;2284069;60;1498;-86
2023/06/22 02:09:46;859381.00;2.86;1484.89;70326.00;0.23;122.32;;;;;24.10;3.40;;;;;;2284145;60;931;-86
2023/06/22 02:12:16;920042.00;3.07;1591.35;76585.00;0.26;133.14;;;;;24.10;3.50;;;;;;2284028;60;1598;-87
2023/06/22 02:14:44;1047035.00;3.49;1815.96;109252.00;0.36;189.54;;;;;24.00;3.40;;;;;;2284104;60;1102;-87
2023/06/22 02:17:12;1272712.00;4.24;2222.25;291275.00;0.97;502.92;;;;;24.10;3.40;;;;;;2283934;60;1602;-88
2023/06/22 02:19:42;810003.00;2.70;1398.57;113707.00;0.38;197.23;;;;;24.00;3.40;;;;;;2283945;60;1667;-86
2023/06/22 02:22:08;119758488.00;399.19;69577816.00;114941.00;0.38;199.36;;;;;23.70;4.60;;;;;;2284172;60;962;-87
2023/06/22 02:24:36;352395.00;1.17;607.98;83273.00;0.28;144.69;;;;;23.70;4.10;;;;;;2284161;60;904;-88
2023/06/22 02:27:05;514223.00;1.71;886.31;148565.00;0.50;257.33;;;;;23.50;4.90;;;;;;2283960;60;2007;-86
2023/06/22 02:29:32;204578.00;0.68;353.80;83303.00;0.28;144.74;;;;;23.60;5.00;;;;;;2284053;60;1085;-88
2023/06/22 02:31:59;204527.00;0.68;353.72;78931.00;0.26;137.19;;;;;23.70;4.70;;;;;;2284141;60;944;-87
2023/06/22 02:34:28;335711.00;1.12;579.30;74717.00;0.25;129.91;;;;;23.70;5.00;;;;;;2283999;60;1592;-86
2023/06/22 02:37:00;334608.00;1.12;577.41;68584.00;0.23;119.31;;;;;23.70;5.00;;;;;;2284023;60;1631;-86
2023/06/22 02:39:27;212060.00;0.71;366.68;90038.00;0.30;156.37;;;;;23.40;4.60;;;;;;2284045;60;1621;-87
2023/06/22 02:41:56;306850.00;1.02;529.69;43441.00;0.14;75.84;;;;;23.30;5.10;;;;;;2283958;60;1626;-87
2023/06/22 02:44:23;218485.00;0.73;377.74;10739.00;0.04;19.23;;;;;23.40;5.40;;;;;;2283998;60;1471;-87
2023/06/22 02:46:50;315406.00;1.05;544.40;13093.00;0.04;23.31;;;;;23.40;5.40;;;;;;2283949;60;1989;-87
2023/06/22 02:49:17;103780.00;0.35;180.10;0.00;0.00;0.62;;;;;23.50;5.60;;;;;;2283938;60;1450;-87
2023/06/22 02:51:48;57578.00;0.19;100.29;0.00;0.00;0.62;;;;;23.40;5.30;;;;;;2283994;60;1134;-87
2023/06/22 02:54:16;164358.00;0.55;284.55;21486.00;0.07;37.84;;;;;23.50;5.10;;;;;;2283955;60;1558;-86
2023/06/22 02:56:43;105541.00;0.35;183.14;0.00;0.00;0.62;;;;;23.50;5.30;;;;;;2284085;60;1639;-86
2023/06/22 02:59:10;249400.00;0.83;430.92;28319.00;0.09;49.67;;;;;23.50;5.00;;;;;;2284658;60;1041;-88
2023/06/22 03:01:39;363180.00;1.21;626.51;0.00;0.00;0.62;;;;;23.60;5.20;;;;;;2284716;60;1528;-86
2023/06/22 03:04:10;233141.00;0.78;402.95;22581.00;0.08;39.74;;;;;23.50;5.50;;;;;;2284938;60;1267;-87
2023/06/22 03:06:40;113909.00;0.38;197.57;0.00;0.00;0.62;;;;;23.60;4.90;;;;;;2284899;60;1988;-86
2023/06/22 03:09:09;54204.00;0.18;94.46;0.00;0.00;0.62;;;;;23.60;5.50;;;;;;2284916;60;1487;-87
2023/06/22 03:11:39;198988.00;0.66;344.18;13022.00;0.04;23.18;;;;;23.60;5.30;;;;;;2284987;60;926;-86
2023/06/22 03:14:05;191322.00;0.64;330.98;0.00;0.00;0.62;;;;;23.50;5.30;;;;;;2284970;60;905;-88
2023/06/22 03:16:32;107115.00;0.36;185.85;0.00;0.00;0.62;;;;;23.50;5.30;;;;;;2284871;60;1331;-88
2023/06/22 03:19:00;421413.00;1.40;726.62;58191.00;0.19;101.35;;;;;23.70;5.50;;;;;;2285075;60;1127;-87
2023/06/22 03:21:29;246733.00;0.82;426.33;0.00;0.00;0.62;;;;;23.70;4.80;;;;;;2284853;60;1234;-88
2023/06/22 03:23:58;298296.00;0.99;514.99;21408.00;0.07;37.71;;;;;23.70;5.00;;;;;;2285018;60;984;-87
2023/06/22 03:26:27;115736.00;0.39;200.73;0.00;0.00;0.62;;;;;23.60;5.10;;;;;;2284819;60;2000;-88
2023/06/22 03:28:55;183710.00;0.61;317.88;0.00;0.00;0.62;;;;;23.60;5.30;;;;;;2284882;60;1621;-85
2023/06/22 03:31:22;155196.00;0.52;268.76;0.00;0.00;0.62;;;;;23.30;5.30;;;;;;2284881;60;1661;-86
2023/06/22 03:33:49;190568.00;0.64;329.69;0.00;0.00;0.62;;;;;23.10;6.20;;;;;;2284862;60;1601;-87
2023/06/22 03:36:18;356759.00;1.19;615.48;8970.00;0.03;16.16;;;;;23.30;7.00;;;;;;2284404;60;2204;-88
2023/06/22 03:38:45;431434.00;1.44;743.85;64106.00;0.21;111.57;;;;;23.40;5.60;;;;;;2284893;60;1447;-87
2023/06/22 03:41:12;650681.00;2.17;1121.81;63856.00;0.21;111.14;;;;;23.40;6.00;;;;;;2284918;60;1545;-88
2023/06/22 03:43:41;1124923.00;3.75;1955.05;161675.00;0.54;279.93;;;;;23.30;6.60;;;;;;2284974;60;1193;-88
2023/06/22 03:46:08;1240383.00;4.13;2163.41;157758.00;0.53;273.18;;;;;23.20;6.60;;;;;;2284826;60;1996;-87
2023/06/22 03:48:38;1148234.00;3.83;1996.90;119405.00;0.40;207.06;;;;;23.00;6.40;;;;;;2284802;60;1462;-86
2023/06/22 03:51:06;1610830.00;5.37;2853.45;82908.00;0.28;144.06;;;;;23.00;7.60;;;;;;2284772;60;1544;-87
2023/06/22 03:53:33;1013788.00;3.38;1756.91;247960.00;0.83;428.44;;;;;23.10;6.70;;;;;;2284846;60;1744;-87
2023/06/22 03:56:04;117941376.00;393.14;66455736.00;83391.00;0.28;144.89;;;;;23.30;6.40;;;;;;2284753;60;1534;-88
2023/06/22 03:58:32;1015025.00;3.38;1759.10;176053.00;0.59;304.69;;;;;23.50;5.60;;;;;;2284871;60;939;-87
2023/06/22 04:01:06;119387592.00;397.96;68932792.00;127692.00;0.43;221.35;;;;;23.80;4.70;;;;;;2284915;60;1146;-86
2023/06/22 04:03:34;1007739.00;3.36;1746.18;152675.00;0.51;264.42;;;;;23.80;4.00;;;;;;2284835;60;1576;-88
2023/06/22 04:06:01;362426.00;1.21;625.22;85612.00;0.29;148.73;;;;;23.50;5.50;;;;;;2284688;60;2192;-86
2023/06/22 04:08:28;308529.00;1.03;532.58;54363.00;0.18;94.73;;;;;23.50;5.60;;;;;;2284553;60;1741;-87
2023/06/22 04:10:58;292750.00;0.98;505.46;90687.00;0.30;157.49;;;;;23.60;5.40;;;;;;2284831;60;1105;-87
2023/06/22 04:13:25;283854.00;0.95;490.16;81924.00;0.27;142.36;;;;;23.60;5.60;;;;;;2284845;60;930;-86
2023/06/22 04:15:55;390340.00;1.30;673.20;93090.00;0.31;161.64;;;;;23.60;5.90;;;;;;2284804;60;919;-87
2023/06/22 04:18:28;625109.00;2.08;1077.60;140563.00;0.47;243.54;;;;;23.70;5.70;;;;;;2284640;60;1586;-87
2023/06/22 04:20:59;364876.00;1.22;629.43;82292.00;0.27;143.00;;;;;23.90;4.70;;;;;;2284748;60;894;-87
2023/06/22 04:23:29;121068288.00;403.56;71887960.00;150842.00;0.50;261.26;;;;;24.00;4.40;;;;;;2284551;60;1442;-87
2023/06/22 04:25:57;454772.00;1.52;783.99;80993.00;0.27;140.75;;;;;23.90;4.60;;;;;;2284794;60;1990;-87
2023/06/22 04:28:24;477052.00;1.59;822.32;103801.00;0.35;180.13;;;;;24.00;5.40;;;;;;2284701;60;1579;-88
2023/06/22 04:30:52;273844.00;0.91;472.95;80666.00;0.27;140.19;;;;;24.00;5.80;;;;;;2284784;60;1622;-88
2023/06/22 04:33:19;354089.00;1.18;610.89;103101.00;0.34;178.92;;;;;23.90;5.90;;;;;;2284764;60;1019;-89
2023/06/22 04:35:51;168782.00;0.56;292.17;0.00;0.00;0.62;;;;;23.80;6.20;;;;;;2284669;60;1097;-89
2023/06/22 04:38:21;266928.00;0.89;461.06;384.00;0.00;1.29;;;;;23.70;6.20;;;;;;2284327;60;1481;-88
2023/06/22 04:40:48;231241.00;0.77;399.68;4633.00;0.02;8.65;;;;;23.80;6.10;;;;;;2284629;60;1014;-87
2023/06/22 04:43:15;91065.00;0.30;158.15;0.00;0.00;0.62;;;;;24.00;5.30;;;;;;2284577;60;1615;-86
2023/06/22 04:45:42;33648.00;0.11;58.90;0.00;0.00;0.62;;;;;24.20;4.90;;;;;;2288668;60;1997;-87
2023/06/22 04:48:10;105977.00;0.35;183.89;12703.00;0.04;22.63;;;;;24.40;4.10;;;;;;2288696;60;1534;-88
2023/06/22 04:50:38;171048.00;0.57;296.07;0.00;0.00;0.62;;;;;24.30;4.70;;;;;;2288722;60;1725;-87
2023/06/22 04:53:07;155762.00;0.52;269.74;0.00;0.00;0.62;;;;;24.10;5.00;;;;;;2288599;60;1117;-87
2023/06/22 04:55:34;109909.00;0.37;190.67;0.00;0.00;0.62;;;;;24.50;5.00;;;;;;2288612;60;1566;-86
2023/06/22 04:58:04;83102.00;0.28;144.40;0.00;0.00;0.62;;;;;24.80;3.70;;;;;;2288678;60;1313;-88
2023/06/22 05:00:32;100281.00;0.33;174.06;0.00;0.00;0.62;;;;;24.70;3.30;;;;;;2288741;60;1514;-87
2023/06/22 05:02:59;74951.00;0.25;130.32;0.00;0.00;0.62;;;;;24.50;3.90;;;;;;2288601;60;1412;-89
2023/06/22 05:05:27;231962.00;0.77;400.92;0.00;0.00;0.62;;;;;24.20;3.90;;;;;;2288638;60;1513;-88
2023/06/22 05:07:54;388235.00;1.29;669.58;128199.00;0.43;222.22;;;;;24.00;5.40;;;;;;2288566;60;2018;-87
2023/06/22 05:10:25;298522.00;1.00;515.38;36629.00;0.12;64.06;;;;;23.90;6.90;;;;;;2288663;60;1108;-87
2023/06/22 05:12:52;1360239.00;4.53;2382.78;115934.00;0.39;201.07;;;;;24.30;5.10;;;;;;2288785;60;1069;-87
2023/06/22 05:15:20;968853.00;3.23;1677.38;70440.00;0.23;122.52;;;;;24.10;4.80;;;;;;2288650;60;1065;-86
2023/06/22 05:17:48;829754.00;2.77;1433.07;56760.00;0.19;98.88;;;;;24.20;5.50;;;;;;2288531;60;1374;-88
2023/06/22 05:20:19;301871.00;1.01;521.14;18439.00;0.06;32.57;;;;;24.30;4.50;;;;;;2288358;60;996;-86
2023/06/22 05:22:46;787397.00;2.62;1359.15;65561.00;0.22;114.09;;;;;24.60;3.60;;;;;;2288746;60;929;-86
2023/06/22 05:25:16;561476.00;1.87;967.75;29744.00;0.10;52.14;;;;;24.30;4.50;;;;;;2288715;60;1106;-88
2023/06/22 05:27:49;997651.00;3.33;1728.31;68972.00;0.23;119.98;;;;;24.20;4.50;;;;;;2288582;60;1993;-87
2023/06/22 05:30:16;475573.00;1.59;819.78;43165.00;0.14;75.36;;;;;24.30;4.30;;;;;;2288705;60;1015;-87
2023/06/22 05:32:47;520861.00;1.74;897.75;41113.00;0.14;71.81;;;;;24.60;4.30;;;;;;2288656;60;1174;-87
2023/06/22 05:35:17;438515.00;1.46;756.03;15128.00;0.05;26.83;;;;;24.90;3.10;;;;;;2288640;60;1042;-87
2023/06/22 05:37:44;725653.00;2.42;1251.75;89642.00;0.30;155.69;;;;;25.30;2.40;;;;;;2288715;60;1429;-88
2023/06/22 05:40:13;1603950.00;5.35;2840.29;109095.00;0.36;189.27;;;;;25.60;1.40;;;;;;2288636;60;1106;-87
2023/06/22 05:42:40;1272382.00;4.24;2221.65;130206.00;0.43;225.68;;;;;26.50;1.00;;;;;;2288449;60;1515;-85
2023/06/22 05:45:09;642601.00;2.14;1107.84;117638.00;0.39;204.01;;;;;27.60;1.00;;;;;;2288663;60;1073;-88
2023/06/22 05:47:36;537334.00;1.79;926.13;83792.00;0.28;145.59;;;;;28.70;1.00;;;;;;2288534;60;1997;-87
2023/06/22 05:50:08;382956.00;1.28;660.51;80143.00;0.27;139.28;;;;;29.80;1.00;;;;;;2288678;60;1171;-87
2023/06/22 05:52:34;425197.00;1.42;733.13;75568.00;0.25;131.38;;;;;31.00;1.00;;;;;;2288620;60;1126;-86
2023/06/22 05:55:03;421159.00;1.40;726.18;95252.00;0.32;165.38;;;;;32.00;1.00;;;;;;2288554;60;1116;-86
2023/06/22 05:57:30;169454.00;0.56;293.33;74338.00;0.25;129.26;;;;;32.60;1.00;;;;;;2288606;60;1387;-86
2023/06/22 05:59:57;330705.00;1.10;570.70;75223.00;0.25;130.78;;;;;33.50;1.00;;;;;;2288602;60;1048;-87
2023/06/22 06:02:26;117329696.00;391.10;65426212.00;73437.00;0.24;127.70;;;;;33.60;1.00;;;;;;2288569;60;1480;-87
2023/06/22 06:04:54;228976.00;0.76;395.79;71385.00;0.24;124.15;;;;;33.80;1.00;;;;;;2288572;60;1117;-87
2023/06/22 06:07:21;233377.00;0.78;403.36;69328.00;0.23;120.60;;;;;34.00;1.00;;;;;;2288488;60;1990;-87
2023/06/22 06:09:48;52133.00;0.17;90.87;0.00;0.00;0.62;;;;;34.40;1.00;;;;;;2288392;60;1516;-87
2023/06/22 06:12:15;38799.00;0.13;67.81;0.00;0.00;0.62;;;;;35.20;1.00;;;;;;2288553;60;1138;-87
2023/06/22 06:14:42;30714.00;0.10;53.82;0.00;0.00;0.62;;;;;35.40;1.00;;;;;;2288613;60;1000;-87
2023/06/22 06:17:09;0.00;0.00;0.62;0.00;0.00;0.62;;;;;35.60;1.00;;;;;;2288465;60;1390;-88
2023/06/22 06:19:38;169512.00;0.57;293.43;0.00;0.00;0.62;;;;;35.70;1.00;;;;;;2288553;60;1059;-87
2023/06/22 06:22:05;0.00;0.00;0.62;0.00;0.00;0.62;;;;;35.90;1.00;;;;;;2288568;60;1322;-87
2023/06/22 06:24:32;0.00;0.00;0.62;0.00;0.00;0.62;;;;;37.00;1.00;;;;;;2288299;60;1093;-86
2023/06/22 06:26:59;0.00;0.00;0.62;0.00;0.00;0.62;;;;;37.00;1.00;;;;;;2288288;60;1995;-87
2023/06/22 06:29:25;129163.00;0.43;223.89;0.00;0.00;0.62;;;;;37.50;1.00;;;;;;2288441;60;1128;-88
2023/06/22 06:31:53;63696.00;0.21;110.87;0.00;0.00;0.62;;;;;37.20;1.00;;;;;;2288599;60;1017;-88
2023/06/22 06:34:20;439576.00;1.47;757.85;131907.00;0.44;228.62;;;;;37.10;1.00;;;;;;2289285;60;1109;-89
2023/06/22 06:36:48;32825.00;0.11;57.47;0.00;0.00;0.62;;;;;37.20;1.00;;;;;;2289165;60;1257;-88
2023/06/22 06:39:15;49936.00;0.17;87.08;0.00;0.00;0.62;;;;;37.70;1.00;;;;;;2289165;60;2467;-89
2023/06/22 06:41:42;12715.00;0.04;22.65;0.00;0.00;0.62;;;;;37.60;1.00;;;;;;2289202;60;1067;-87
2023/06/22 06:44:09;64206.00;0.21;111.75;0.00;0.00;0.62;;;;;38.10;1.00;;;;;;2288983;60;1079;-86
2023/06/22 06:46:36;0.00;0.00;0.62;0.00;0.00;0.62;;;;;38.10;1.00;;;;;;2289184;60;1919;-88
2023/06/22 06:49:03;446821.00;1.49;770.31;193462.00;0.64;334.67;;;;;38.90;1.00;;;;;;2289256;60;1094;-87
2023/06/22 06:51:30;158517.00;0.53;274.48;0.00;0.00;0.62;;;;;38.90;1.00;;;;;;2289302;60;1057;-87
2023/06/22 06:53:58;173179.00;0.58;299.74;50977.00;0.17;88.88;;;;;39.30;1.00;;;;;;2289240;60;1129;-85
2023/06/22 06:56:25;3085.00;0.01;5.97;0.00;0.00;0.62;;;;;39.20;1.00;;;;;;2288727;60;1285;-86
2023/06/22 06:58:52;1296462.00;4.32;2265.63;126306.00;0.42;218.96;;;;;39.20;1.00;;;;;;2289209;60;1116;-86
2023/06/22 07:01:19;1353896.00;4.51;2371.09;221300.00;0.74;382.58;;;;;39.40;1.00;;;;;;2289164;60;1092;-87
2023/06/22 07:03:46;266041.00;0.89;459.54;62120.00;0.21;108.14;;;;;40.00;1.00;;;;;;2289186;60;1101;-87
2023/06/22 07:06:14;227026.00;0.76;392.43;77502.00;0.26;134.72;;;;;39.20;1.00;;;;;;2289072;60;2020;-88
2023/06/22 07:08:41;243758.00;0.81;421.22;67266.00;0.22;117.04;;;;;39.40;1.00;;;;;;2289125;60;1051;-86
2023/06/22 07:11:09;63884.00;0.21;111.19;0.00;0.00;0.62;;;;;39.10;1.00;;;;;;2289151;60;992;-87
2023/06/22 07:13:36;0.00;0.00;0.62;0.00;0.00;0.62;;;;;38.80;1.00;;;;;;2289035;60;1200;-87
2023/06/22 07:16:03;0.00;0.00;0.62;0.00;0.00;0.62;;;;;39.10;1.00;;;;;;2289128;60;1322;-88
2023/06/22 07:18:30;117318.00;0.39;203.46;0.00;0.00;0.62;;;;;39.80;1.00;;;;;;2289148;60;1110;-88
2023/06/22 07:20:57;125150.00;0.42;216.97;0.00;0.00;0.62;;;;;39.60;1.00;;;;;;2289106;60;1137;-87
2023/06/22 07:23:24;118979.00;0.40;206.32;48918.00;0.16;85.31;;;;;39.90;1.00;;;;;;2288968;60;1102;-87
2023/06/22 07:25:51;85131.00;0.28;147.90;11748.00;0.04;20.98;;;;;39.20;1.00;;;;;;2289144;60;1124;-86
2023/06/22 07:28:19;1748915.00;5.83;3120.87;137357.00;0.46;238.01;;;;;38.90;1.00;;;;;;2289076;60;1938;-88
2023/06/22 07:30:47;819105.00;2.73;1414.46;103162.00;0.34;179.03;;;;;39.30;1.00;;;;;;2289102;60;1136;-87
2023/06/22 07:33:14;314868.00;1.05;543.48;77280.00;0.26;134.34;;;;;40.00;1.00;;;;;;2289071;60;1122;-87
2023/06/22 07:35:41;159916.00;0.53;276.89;62917.00;0.21;109.52;;;;;40.00;1.00;;;;;;2289055;60;1611;-88
2023/06/22 07:38:08;267124.00;0.89;461.40;24682.00;0.08;43.38;;;;;39.60;1.00;;;;;;2289038;60;1302;-87
2023/06/22 07:40:35;0.00;0.00;0.62;0.00;0.00;0.62;;;;;40.00;1.00;;;;;;2288989;60;1203;-87
2023/06/22 07:43:03;198824.00;0.66;343.90;53542.00;0.18;93.31;;;;;39.80;1.00;;;;;;2288853;60;1023;-87
2023/06/22 07:45:33;0.00;0.00;0.62;0.00;0.00;0.62;;;;;39.80;1.00;;;;;;2288994;60;1116;-86
2023/06/22 07:48:00;218192.00;0.73;377.23;0.00;0.00;0.62;;;;;39.40;1.00;;;;;;2288980;60;2008;-87
2023/06/22 07:50:26;33354.00;0.11;58.39;0.00;0.00;0.62;;;;;40.10;1.00;;;;;;2289034;60;1090;-87
2023/06/22 07:52:54;24026.00;0.08;42.24;0.00;0.00;0.62;;;;;40.50;1.00;;;;;;2289034;60;1069;-87
2023/06/22 07:55:20;1437611.00;4.79;2526.26;164459.00;0.55;284.72;;;;;39.80;1.00;;;;;;2289045;60;1020;-86
2023/06/22 07:57:51;929193.00;3.10;1607.45;123969.00;0.41;214.93;;;;;39.40;1.00;;;;;;2288969;60;1309;-87
2023/06/22 08:00:19;0.00;0.00;0.62;0.00;0.00;0.62;;;;;39.40;1.00;;;;;;2288995;60;1157;-87
2023/06/22 08:02:47;105295.00;0.35;182.71;0.00;0.00;0.62;;;;;39.50;1.00;;;;;;2288971;60;1037;-85
2023/06/22 08:05:15;179605.00;0.60;310.81;40098.00;0.13;70.06;;;;;38.90;1.00;;;;;;2289003;60;1148;-86
2023/06/22 08:07:43;31055.00;0.10;54.41;0.00;0.00;0.62;;;;;39.30;1.00;;;;;;2288837;60;1931;-86
2023/06/22 08:10:12;937616.00;3.13;1622.28;66501.00;0.22;115.71;;;;;38.90;1.00;;;;;;2289000;60;1102;-87
2023/06/22 08:12:39;1608448.00;5.36;2848.89;294687.00;0.98;508.79;;;;;39.10;1.00;;;;;;2288927;60;1087;-86
2023/06/22 08:15:09;564973.00;1.88;973.78;99165.00;0.33;172.13;;;;;39.10;1.00;;;;;;2288949;60;1023;-87
2023/06/22 08:17:37;167118.00;0.56;289.30;70429.00;0.23;122.50;;;;;38.90;1.00;;;;;;2288740;60;1927;-87
2023/06/22 08:20:09;0.00;0.00;0.62;0.00;0.00;0.62;;;;;39.30;1.00;;;;;;2288843;60;1121;-88
2023/06/22 08:22:36;123492.00;0.41;214.11;47316.00;0.16;82.54;;;;;39.60;1.00;;;;;;2288807;60;1202;-87
2023/06/22 08:25:03;652307.00;2.17;1124.63;123070.00;0.41;213.38;;;;;39.80;1.00;;;;;;2288856;60;1180;-87
2023/06/22 08:27:31;176703.00;0.59;305.81;0.00;0.00;0.62;;;;;39.70;1.00;;;;;;2288721;60;2002;-86
2023/06/22 08:29:58;104480.00;0.35;181.30;0.00;0.00;0.62;;;;;39.20;1.00;;;;;;2288941;60;1055;-85
2023/06/22 08:32:26;23714.00;0.08;41.70;0.00;0.00;0.62;;;;;38.80;1.00;;;;;;2288880;60;1120;-86
2023/06/22 08:34:53;0.00;0.00;0.62;0.00;0.00;0.62;;;;;38.90;1.00;;;;;;2288689;60;1217;-86
2023/06/22 08:37:24;106810.00;0.36;185.33;37692.00;0.13;65.90;;;;;39.20;1.00;;;;;;2288805;60;1288;-86
2023/06/22 08:39:51;29011.00;0.10;50.87;0.00;0.00;0.62;;;;;38.60;1.00;;;;;;2288854;60;1160;-88
2023/06/22 08:42:18;153645.00;0.51;266.09;0.00;0.00;0.62;;;;;39.10;1.00;;;;;;2288877;60;1190;-86
2023/06/22 08:44:45;0.00;0.00;0.62;0.00;0.00;0.62;;;;;38.50;1.00;;;;;;2288905;60;1068;-87
2023/06/22 08:47:12;53838.00;0.18;93.82;0.00;0.00;0.62;;;;;38.80;1.00;;;;;;2288336;60;2002;-87
2023/06/22 08:49:39;34688.00;0.12;60.70;0.00;0.00;0.62;;;;;38.50;1.00;;;;;;2288810;60;1077;-88
2023/06/22 08:52:08;7126.00;0.02;12.97;0.00;0.00;0.62;;;;;37.20;1.00;;;;;;2288364;60;1168;-87
2023/06/22 08:54:37;497175.00;1.66;856.96;40984.00;0.14;71.59;;;;;37.00;1.00;;;;;;2288855;60;1016;-88
2023/06/22 08:57:04;778322.00;2.59;1343.34;123676.00;0.41;214.42;;;;;37.10;1.00;;;;;;2288795;60;1267;-87
2023/06/22 08:59:31;752373.00;2.51;1298.18;119420.00;0.40;207.08;;;;;37.30;1.00;;;;;;2288828;60;1184;-89
2023/06/22 09:01:58;700837.00;2.34;1208.69;36505.00;0.12;63.84;;;;;37.50;1.00;;;;;;2288351;60;1727;-87
2023/06/22 09:04:25;579750.00;1.93;999.27;14468.00;0.05;25.69;;;;;37.90;1.00;;;;;;2288569;60;1200;-88
2023/06/22 09:06:53;999575.00;3.33;1731.72;65127.00;0.22;113.34;;;;;38.00;1.00;;;;;;2288693;60;2006;-87
2023/06/22 09:09:20;1336361.00;4.45;2338.81;151070.00;0.50;261.65;;;;;37.60;1.00;;;;;;2287708;60;1088;-89
2023/06/22 09:11:48;1027648.00;3.43;1781.50;23075.00;0.08;40.59;;;;;37.90;1.00;;;;;;2288793;60;1190;-88
2023/06/22 09:14:15;1369006.00;4.56;2398.96;293185.00;0.98;506.20;;;;;38.50;1.00;;;;;;2288836;60;1098;-88
2023/06/22 09:16:42;1035423.00;3.45;1795.31;45907.00;0.15;80.11;;;;;38.20;1.00;;;;;;2288778;60;1345;-88
2023/06/22 09:19:09;1478935.00;4.93;2603.54;154095.00;0.51;266.86;;;;;37.60;1.00;;;;;;2288814;60;1086;-88
2023/06/22 09:21:36;1251279.00;4.17;2183.21;271721.00;0.91;469.30;;;;;36.90;1.00;;;;;;2288734;60;1033;-88
2023/06/22 09:24:04;1088945.00;3.63;1890.67;84606.00;0.28;146.99;;;;;35.90;1.00;;;;;;2288505;60;1070;-86
2023/06/22 09:26:31;285949.00;0.95;493.77;68655.00;0.23;119.44;;;;;35.80;1.00;;;;;;2288660;60;1278;-88
2023/06/22 09:28:59;364214.00;1.21;628.29;74411.00;0.25;129.38;;;;;36.30;1.00;;;;;;2288716;60;1928;-87
2023/06/22 09:31:26;174756.00;0.58;302.46;66072.00;0.22;114.97;;;;;36.80;1.00;;;;;;2288690;60;1129;-88
2023/06/22 09:33:54;515211.00;1.72;888.02;71360.00;0.24;124.11;;;;;37.00;1.00;;;;;;2288756;60;1008;-87
2023/06/22 09:36:21;282917.00;0.94;488.55;74615.00;0.25;129.73;;;;;37.20;1.00;;;;;;2288444;60;1298;-87
2023/06/22 09:38:58;464095.00;1.55;800.03;73760.00;0.25;128.26;;;;;36.60;1.00;;;;;;2288666;60;2211;-88
2023/06/22 09:41:25;281718.00;0.94;486.49;70131.00;0.23;121.99;;;;;36.40;1.00;;;;;;2288609;60;1792;-86